الصفحة الرئيسية
METAR-TAF:

METAR-TAF

مطار :

مطار خوسيه مارتي الدولي

هافانا, كوبا

دائرة عرض: 22-59N, خط طول: 082-24W, ارتفاع: 59 متر

مراقبة الطقس الحالي

تاريخ ووقت الإصدار 46 دقيقة قبل الساعة 03:55UTC
ريح 4 عقدة من الجنوب الشرقي, الاتجاه يتراوح بين الشرق و الجنوب
درجة الحرارة 22°درجة مئوية
الرطوبة 88%
ضغط 1017 hPa
الرؤية: 9000 متر
غيوم متفرقة على ارتفاع 3500 قدم

METAR: MUHA 240355Z 14004KT 100V170 9000 SCT035 22/20 Q1017

زمن: 23:41 (04:41 UTC)

توقعات

تاريخ ووقت الإصدار 5ساعات و 41 دقيقة قبل الساعة 23:00UTC
التوقعات صالحة من24 الساعة 00 UTC إلى 24 الساعة 24 UTC
ريح 8 عقدة من الجنوب
الرؤية: 9000 متر
غيوم قليلة على ارتفاع 3000 قدم
مؤقت
من 24 الساعة 16 UTC إلى 24 الساعة 24 UTC
الرؤية: 3000 متر
غيوم قليلة على ارتفاع 1500 قدم
غيوم مفككة على ارتفاع 2000 قدم
زخات من المطر

TAF: MUHA 232300Z 2400/2424 17008KT 9000 FEW030 TEMPO 2416/2424 3000 SHRA FEW015 BKN020

أرصاد الطقس والتوقعات من أكثر من 4000 مطار (تقارير الطقس للمطار METAR والتنبؤ بالطقس بالمطارTAF).

المحطات المتاحة هي النقط الصفراء والحمراء على الخريطة.

حرك المؤشر فوق النقطة لمعرفة اسم المحطة.

ثم انقر لمعرفة أرصاد وتوقعات الطقس.

لتغيير الخارطة: اضغط على الأزرار الخضراء مع رمز الصليب الأسود للتكبير. على الزر الأخضر مع شرطة للتصغير، أو على الأسهم الخضراء للخرائط المجاورة.


METAR-TAF: